createdAt,value
2022-11-29T00:02:12.371Z,10.40
2022-11-29T00:05:16.970Z,10.10
2022-11-29T00:08:20.215Z,10.03
2022-11-29T00:11:43.714Z,12.03
2022-11-29T00:14:46.951Z,10.57
2022-11-29T00:17:50.121Z,10.77
2022-11-29T00:20:54.408Z,10.83
2022-11-29T00:23:57.399Z,10.57
2022-11-29T00:27:01.350Z,11.20
2022-11-29T00:30:05.161Z,10.60
2022-11-29T00:33:08.300Z,10.57
2022-11-29T00:36:12.910Z,12.00
2022-11-29T00:39:16.345Z,12.27
2022-11-29T00:42:20.514Z,12.70
2022-11-29T00:45:23.451Z,11.37
2022-11-29T00:48:26.672Z,12.40
2022-11-29T00:51:31.033Z,12.77
2022-11-29T00:54:34.000Z,11.60
2022-11-29T00:57:36.937Z,11.53
2022-11-29T01:00:39.902Z,11.00
2022-11-29T01:03:43.081Z,11.00
2022-11-29T01:06:47.405Z,13.03
2022-11-29T01:09:50.354Z,11.63
2022-11-29T01:12:53.344Z,11.53
2022-11-29T01:15:57.236Z,12.63
2022-11-29T01:19:00.437Z,12.57
2022-11-29T01:22:04.760Z,11.80
2022-11-29T01:25:09.351Z,12.40
2022-11-29T01:28:12.309Z,12.57
2022-11-29T01:31:18.245Z,11.97
2022-11-29T01:34:21.207Z,12.63
2022-11-29T01:37:25.563Z,13.00
2022-11-29T01:40:28.530Z,11.87
2022-11-29T01:43:31.599Z,12.97
2022-11-29T01:46:36.493Z,12.40
2022-11-29T01:49:42.273Z,13.00
2022-11-29T01:52:47.252Z,13.20
2022-11-29T01:55:55.053Z,13.40
2022-11-29T01:58:58.364Z,13.23
2022-11-29T02:02:07.603Z,12.17
2022-11-29T02:05:13.308Z,12.80
2022-11-29T02:08:24.171Z,13.00
2022-11-29T02:11:58.141Z,12.30
2022-11-29T02:15:09.773Z,12.70
2022-11-29T02:18:16.051Z,14.67
2022-11-29T02:21:38.778Z,14.63
2022-11-29T02:25:14.344Z,13.33
2022-11-29T02:28:47.884Z,14.20
2022-11-29T02:32:21.121Z,13.07
2022-11-29T02:35:39.685Z,14.07
2022-11-29T02:39:28.323Z,12.97
2022-11-29T02:42:57.722Z,14.10
2022-11-29T02:46:21.125Z,13.40
2022-11-29T02:49:36.941Z,13.67
2022-11-29T02:52:51.255Z,14.67
2022-11-29T02:56:00.477Z,13.27
2022-11-29T02:59:10.078Z,13.93
2022-11-29T03:02:22.253Z,14.30
2022-11-29T03:05:37.958Z,14.70
2022-11-29T03:08:50.788Z,13.90
2022-11-29T03:12:03.777Z,14.70
2022-11-29T03:15:28.055Z,13.57
2022-11-29T03:18:38.571Z,14.50
2022-11-29T03:21:46.867Z,14.47
2022-11-29T03:24:59.733Z,13.93
2022-11-29T03:28:07.303Z,13.47
2022-11-29T03:31:22.366Z,14.37
2022-11-29T03:34:37.128Z,14.60
2022-11-29T03:37:49.358Z,13.93
2022-11-29T03:41:03.344Z,15.20
2022-11-29T03:44:12.257Z,14.60
2022-11-29T03:47:19.163Z,15.00
2022-11-29T03:50:26.906Z,14.53
2022-11-29T03:53:36.233Z,13.93
2022-11-29T03:56:41.857Z,15.00
2022-11-29T03:59:55.972Z,15.10
2022-11-29T04:03:19.922Z,15.47
2022-11-29T04:06:41.559Z,13.50
2022-11-29T04:10:04.171Z,15.20
2022-11-29T04:13:35.507Z,15.77
2022-11-29T04:17:04.502Z,14.57
2022-11-29T04:20:39.180Z,14.60
2022-11-29T04:24:00.547Z,12.87
2022-11-29T04:27:41.491Z,13.97
2022-11-29T04:30:55.130Z,15.87
2022-11-29T04:34:19.327Z,15.57
2022-11-29T04:37:45.525Z,15.27
2022-11-29T04:41:05.581Z,14.67
2022-11-29T04:44:36.471Z,16.67
2022-11-29T04:47:53.554Z,15.57
2022-11-29T04:51:08.898Z,14.33
2022-11-29T04:54:22.006Z,14.07
2022-11-29T04:57:37.128Z,15.20
2022-11-29T05:00:48.247Z,15.37
2022-11-29T05:03:58.210Z,16.07
2022-11-29T05:07:08.217Z,15.73
2022-11-29T05:10:23.697Z,15.73
2022-11-29T05:13:34.783Z,15.03
2022-11-29T05:16:50.170Z,16.37
2022-11-29T05:20:15.981Z,15.83
2022-11-29T05:23:33.350Z,16.83
2022-11-29T05:26:43.160Z,16.80
2022-11-29T05:29:55.088Z,16.00
2022-11-29T05:33:04.532Z,15.20
2022-11-29T05:36:19.757Z,16.20
2022-11-29T05:39:35.852Z,15.50
2022-11-29T05:43:02.516Z,16.50
2022-11-29T05:46:12.632Z,16.03
2022-11-29T05:49:24.472Z,16.73
2022-11-29T05:52:45.772Z,14.97
2022-11-29T05:55:56.639Z,16.10
2022-11-29T05:59:03.797Z,17.33
2022-11-29T06:02:16.361Z,16.13
2022-11-29T06:05:26.906Z,16.27
2022-11-29T06:08:38.351Z,17.53
2022-11-29T06:11:45.783Z,15.67
2022-11-29T06:15:21.072Z,14.33
2022-11-29T06:18:38.110Z,16.07
2022-11-29T06:21:48.132Z,17.70
2022-11-29T06:25:03.857Z,14.97
2022-11-29T06:28:22.628Z,15.40
2022-11-29T06:31:29.365Z,16.33
2022-11-29T06:34:41.765Z,16.40
2022-11-29T06:37:49.859Z,16.77
2022-11-29T06:41:01.365Z,16.13
2022-11-29T06:44:05.888Z,16.40
2022-11-29T06:47:14.698Z,16.13
2022-11-29T06:50:35.344Z,15.83
2022-11-29T06:53:47.705Z,16.10
2022-11-29T06:56:59.755Z,14.70
2022-11-29T07:00:11.527Z,16.37
2022-11-29T07:03:34.177Z,16.97
2022-11-29T07:06:37.481Z,16.10
2022-11-29T07:09:41.803Z,16.00
2022-11-29T07:12:47.771Z,16.67
2022-11-29T07:16:01.879Z,16.93
2022-11-29T07:19:13.632Z,16.37
2022-11-29T07:22:43.379Z,16.03
2022-11-29T07:25:56.676Z,15.93
2022-11-29T07:29:17.080Z,16.40
2022-11-29T07:32:27.894Z,16.57
2022-11-29T07:35:38.573Z,18.50
2022-11-29T07:38:54.654Z,17.07
2022-11-29T07:42:08.380Z,16.33
2022-11-29T07:45:21.779Z,16.50
2022-11-29T07:48:24.883Z,16.07
2022-11-29T07:51:27.896Z,17.53
2022-11-29T07:54:31.879Z,17.40
2022-11-29T07:57:36.601Z,18.00
2022-11-29T08:00:41.903Z,17.67
2022-11-29T08:03:44.938Z,18.07
2022-11-29T08:06:48.024Z,17.10
2022-11-29T08:09:51.341Z,17.60
2022-11-29T08:12:55.002Z,16.83
2022-11-29T08:15:59.407Z,17.37
2022-11-29T08:19:02.398Z,16.00
2022-11-29T08:22:05.389Z,16.93
2022-11-29T08:25:10.339Z,17.93
2022-11-29T08:28:13.367Z,17.03
2022-11-29T08:31:17.718Z,17.70
2022-11-29T08:34:21.123Z,16.23
2022-11-29T08:37:24.116Z,16.43
2022-11-29T08:40:27.097Z,17.20
2022-11-29T08:43:30.464Z,17.40
2022-11-29T08:46:52.378Z,16.90
2022-11-29T08:50:04.103Z,17.17
2022-11-29T08:53:24.543Z,18.07
2022-11-29T08:59:50.431Z,17.07
2022-11-29T09:02:54.761Z,16.00
2022-11-29T09:05:59.183Z,16.27
2022-11-29T09:09:02.696Z,17.77
2022-11-29T09:12:08.544Z,17.17
2022-11-29T09:15:12.372Z,16.37
2022-11-29T09:18:16.638Z,17.43
2022-11-29T09:21:19.964Z,16.77
2022-11-29T09:24:22.900Z,16.03
2022-11-29T09:27:25.879Z,17.50
2022-11-29T09:30:30.530Z,16.00
2022-11-29T09:33:35.219Z,17.37
2022-11-29T09:36:38.167Z,17.43
2022-11-29T09:39:41.593Z,17.37
2022-11-29T09:42:56.480Z,15.73
2022-11-29T09:46:05.327Z,17.37
2022-11-29T09:49:28.374Z,16.00
2022-11-29T09:52:44.223Z,16.97
2022-11-29T09:55:59.410Z,18.43
2022-11-29T09:59:06.045Z,16.07
2022-11-29T10:02:21.398Z,16.50
2022-11-29T10:05:30.187Z,16.13
2022-11-29T10:08:37.674Z,17.57
2022-11-29T10:11:43.412Z,16.53
2022-11-29T10:14:50.789Z,17.43
2022-11-29T10:17:57.185Z,17.83
2022-11-29T10:21:07.300Z,17.60
2022-11-29T10:24:14.686Z,16.63
2022-11-29T10:27:21.138Z,15.40
2022-11-29T10:30:24.223Z,16.10
2022-11-29T10:33:30.456Z,17.73
2022-11-29T10:36:40.333Z,17.30
2022-11-29T10:39:47.843Z,17.20
2022-11-29T10:42:53.032Z,18.37
2022-11-29T10:45:56.898Z,18.33
2022-11-29T10:49:02.600Z,17.93
2022-11-29T10:52:16.361Z,16.63
2022-11-29T10:55:19.441Z,17.60
2022-11-29T10:58:28.263Z,17.57
2022-11-29T11:01:34.581Z,16.77
2022-11-29T11:04:46.401Z,17.77
2022-11-29T11:07:58.055Z,17.20
2022-11-29T11:11:02.345Z,17.97
2022-11-29T11:14:22.655Z,17.17
2022-11-29T11:17:30.037Z,17.40
2022-11-29T11:20:35.512Z,17.90
2022-11-29T11:23:46.352Z,17.40
2022-11-29T11:26:49.413Z,17.27
2022-11-29T11:29:53.701Z,17.50
2022-11-29T11:33:09.879Z,17.63
2022-11-29T11:36:16.145Z,17.10
2022-11-29T11:39:23.120Z,17.70
2022-11-29T11:42:38.925Z,18.47
2022-11-29T11:45:41.933Z,18.10
2022-11-29T11:48:44.989Z,17.10
2022-11-29T11:51:48.255Z,17.03
2022-11-29T11:54:55.649Z,17.93
2022-11-29T11:58:07.647Z,17.30
2022-11-29T12:01:17.502Z,17.70
2022-11-29T12:04:23.444Z,18.67
2022-11-29T12:07:59.792Z,17.97
2022-11-29T12:11:06.833Z,16.30
2022-11-29T12:14:21.088Z,17.03
2022-11-29T12:17:33.068Z,18.17
2022-11-29T12:20:41.757Z,17.07
2022-11-29T12:23:50.370Z,17.87
2022-11-29T12:26:57.872Z,18.80
2022-11-29T12:30:01.342Z,18.97
2022-11-29T12:33:18.325Z,18.53
2022-11-29T12:36:33.164Z,17.43
2022-11-29T12:39:50.686Z,17.60
2022-11-29T12:43:00.407Z,19.53
2022-11-29T12:46:12.867Z,18.70
2022-11-29T12:49:26.055Z,19.13
2022-11-29T12:52:36.071Z,19.03
2022-11-29T12:55:49.452Z,18.87
2022-11-29T12:59:06.679Z,19.27
2022-11-29T13:02:28.032Z,18.17
2022-11-29T13:05:52.158Z,18.47
2022-11-29T13:09:18.878Z,18.73
2022-11-29T13:12:29.036Z,18.60
2022-11-29T13:15:40.542Z,19.00
2022-11-29T13:18:49.626Z,18.60
2022-11-29T13:21:59.335Z,19.77
2022-11-29T13:25:05.238Z,18.07
2022-11-29T13:28:12.598Z,19.33
2022-11-29T13:31:19.900Z,17.27
2022-11-29T13:34:29.853Z,19.07
2022-11-29T13:37:38.673Z,19.13
2022-11-29T13:40:49.553Z,19.07
2022-11-29T13:43:59.764Z,18.90
2022-11-29T13:47:08.022Z,20.00
2022-11-29T13:50:37.557Z,19.40
2022-11-29T13:53:48.917Z,18.57
2022-11-29T13:57:03.079Z,19.87
2022-11-29T14:00:07.723Z,19.03
2022-11-29T14:03:34.627Z,19.70
2022-11-29T14:06:39.394Z,20.20
2022-11-29T14:09:51.824Z,20.37
2022-11-29T14:12:57.533Z,18.97
2022-11-29T14:16:04.435Z,18.50
2022-11-29T14:19:22.411Z,19.33
2022-11-29T14:22:25.666Z,18.80
2022-11-29T14:28:55.178Z,18.63
2022-11-29T14:31:58.268Z,19.63
2022-11-29T14:35:13.932Z,19.07
2022-11-29T14:38:27.707Z,18.90
2022-11-29T14:41:49.815Z,19.53
2022-11-29T14:44:55.167Z,19.73
2022-11-29T14:47:58.893Z,20.93
2022-11-29T14:51:12.419Z,21.23
2022-11-29T14:54:18.293Z,19.30
2022-11-29T14:58:05.768Z,18.83
2022-11-29T15:01:11.018Z,20.97
2022-11-29T15:04:14.509Z,19.43
2022-11-29T15:07:24.986Z,21.07
2022-11-29T15:10:32.628Z,21.00
2022-11-29T15:13:39.389Z,20.97
2022-11-29T15:17:04.803Z,20.70
2022-11-29T15:20:37.407Z,21.23
2022-11-29T15:23:43.199Z,19.97
2022-11-29T15:26:59.059Z,19.90
2022-11-29T15:30:20.716Z,19.43
2022-11-29T15:33:25.766Z,19.47
2022-11-29T15:36:28.983Z,20.07
2022-11-29T15:39:35.277Z,20.77
2022-11-29T15:42:43.851Z,22.03
2022-11-29T15:45:51.914Z,20.83
2022-11-29T15:48:55.528Z,21.27
2022-11-29T15:52:01.873Z,20.53
2022-11-29T15:55:12.420Z,20.77
2022-11-29T15:58:15.952Z,20.80
2022-11-29T16:01:21.808Z,21.30
2022-11-29T16:04:27.172Z,20.00
2022-11-29T16:07:32.607Z,19.97
2022-11-29T16:10:43.456Z,19.50
2022-11-29T16:14:04.276Z,18.77
2022-11-29T16:17:07.260Z,20.03
2022-11-29T16:20:24.395Z,19.70
2022-11-29T16:23:34.427Z,19.93
2022-11-29T16:26:42.830Z,20.47
2022-11-29T16:29:46.957Z,21.10
2022-11-29T16:32:54.211Z,20.00
2022-11-29T16:36:12.705Z,18.70
2022-11-29T16:39:22.667Z,21.00
2022-11-29T16:42:29.054Z,19.83
2022-11-29T16:45:35.490Z,20.33
2022-11-29T16:48:39.030Z,19.77
2022-11-29T16:51:48.237Z,18.60
2022-11-29T16:54:52.083Z,19.60
2022-11-29T16:57:56.566Z,20.00
2022-11-29T17:00:59.565Z,21.13
2022-11-29T17:04:02.638Z,19.50
2022-11-29T17:07:07.858Z,21.90
2022-11-29T17:10:16.316Z,20.93
2022-11-29T17:13:20.614Z,20.97
2022-11-29T17:16:25.047Z,21.23
2022-11-29T17:19:30.600Z,20.90
2022-11-29T17:22:33.557Z,20.50
2022-11-29T17:25:36.507Z,19.57
2022-11-29T17:28:42.465Z,21.37
2022-11-29T17:31:46.295Z,20.00
2022-11-29T17:34:49.285Z,20.40
2022-11-29T17:37:52.264Z,21.43
2022-11-29T17:40:55.171Z,20.70
2022-11-29T17:43:59.791Z,21.13
2022-11-29T17:47:02.716Z,20.70
2022-11-29T17:50:06.836Z,20.50
2022-11-29T17:53:09.781Z,20.60
2022-11-29T17:56:14.677Z,20.70
2022-11-29T17:59:19.342Z,21.27
2022-11-29T18:02:22.306Z,19.53
2022-11-29T18:05:27.922Z,20.93
2022-11-29T18:08:38.753Z,19.30
2022-11-29T18:11:48.086Z,20.23
2022-11-29T18:14:53.176Z,21.80
2022-11-29T18:17:56.118Z,21.07
2022-11-29T18:21:00.171Z,21.87
2022-11-29T18:24:04.628Z,21.57
2022-11-29T18:27:07.569Z,20.13
2022-11-29T18:30:12.604Z,21.60
2022-11-29T18:33:15.553Z,20.60
2022-11-29T18:36:21.124Z,22.00
2022-11-29T18:39:24.966Z,22.10
2022-11-29T18:42:27.918Z,23.50
2022-11-29T18:45:34.750Z,22.23
2022-11-29T18:48:38.664Z,21.57
2022-11-29T18:51:44.283Z,21.10
2022-11-29T18:54:47.609Z,22.93
2022-11-29T18:57:51.194Z,22.70
2022-11-29T19:00:55.529Z,21.20
2022-11-29T19:04:00.655Z,20.97
2022-11-29T19:07:03.585Z,22.27
2022-11-29T19:10:08.105Z,21.13
2022-11-29T19:13:11.068Z,21.97
2022-11-29T19:16:18.809Z,22.33
2022-11-29T19:19:21.799Z,21.43
2022-11-29T19:22:24.741Z,22.20
2022-11-29T19:25:27.668Z,19.93
2022-11-29T19:28:30.837Z,22.40
2022-11-29T19:31:35.237Z,22.27
2022-11-29T19:34:38.300Z,22.20
2022-11-29T19:37:41.980Z,22.53
2022-11-29T19:40:44.932Z,21.43
2022-11-29T19:43:49.101Z,19.83
2022-11-29T19:46:53.357Z,21.70
2022-11-29T19:50:02.059Z,21.57
2022-11-29T19:53:05.368Z,20.07
2022-11-29T19:56:11.413Z,21.40
2022-11-29T19:59:14.389Z,21.57
2022-11-29T20:02:18.863Z,21.87
2022-11-29T20:05:21.890Z,22.97
2022-11-29T20:08:24.876Z,20.17
2022-11-29T20:11:28.002Z,21.90
2022-11-29T20:14:30.928Z,21.37
2022-11-29T20:17:35.223Z,21.83
2022-11-29T20:20:38.182Z,20.53
2022-11-29T20:23:42.080Z,22.67
2022-11-29T20:26:47.434Z,23.00
2022-11-29T20:29:50.408Z,21.90
2022-11-29T20:32:54.970Z,20.73
2022-11-29T20:36:17.219Z,22.90
2022-11-29T20:39:31.624Z,21.27
2022-11-29T20:42:50.915Z,22.60
2022-11-29T20:45:54.162Z,21.73
2022-11-29T20:49:03.236Z,21.23
2022-11-29T20:52:14.088Z,21.47
2022-11-29T20:55:17.127Z,20.77
2022-11-29T20:58:20.065Z,21.43
2022-11-29T21:01:23.194Z,21.77
2022-11-29T21:04:27.590Z,22.10
2022-11-29T21:07:30.631Z,21.00
2022-11-29T21:10:35.060Z,21.97
2022-11-29T21:13:38.834Z,22.33
2022-11-29T21:16:42.274Z,20.43
2022-11-29T21:19:47.121Z,21.97
2022-11-29T21:22:57.944Z,19.33
2022-11-29T21:26:07.218Z,21.80
2022-11-29T21:29:16.672Z,20.60
2022-11-29T21:32:22.944Z,22.57
2022-11-29T21:35:27.368Z,20.90
2022-11-29T21:38:30.420Z,20.70
2022-11-29T21:41:33.466Z,21.33
2022-11-29T21:44:36.428Z,20.43
2022-11-29T21:47:39.339Z,20.27
2022-11-29T21:50:43.652Z,21.43
2022-11-29T21:53:46.565Z,21.07
2022-11-29T21:56:49.668Z,22.43
2022-11-29T21:59:53.069Z,21.97
2022-11-29T22:02:57.345Z,20.47
2022-11-29T22:06:04.219Z,20.63
2022-11-29T22:09:07.604Z,21.17
2022-11-29T22:12:32.299Z,23.07
2022-11-29T22:15:33.770Z,21.30
2022-11-29T22:18:37.416Z,21.23
2022-11-29T22:21:42.226Z,19.10
2022-11-29T22:24:45.526Z,20.60
2022-11-29T22:27:50.484Z,20.03
2022-11-29T22:30:53.434Z,21.63
2022-11-29T22:33:56.814Z,21.53
2022-11-29T22:37:01.116Z,21.20
2022-11-29T22:40:04.281Z,21.77
2022-11-29T22:43:07.232Z,20.43
2022-11-29T22:46:12.986Z,20.87
2022-11-29T22:49:15.999Z,20.73
2022-11-29T22:52:20.364Z,21.60
2022-11-29T22:55:23.287Z,19.40
2022-11-29T22:58:26.315Z,22.07
2022-11-29T23:01:31.159Z,22.77
2022-11-29T23:04:34.059Z,21.03
2022-11-29T23:07:38.407Z,21.63
2022-11-29T23:10:41.388Z,21.07
2022-11-29T23:13:45.406Z,22.10
2022-11-29T23:16:48.487Z,20.83
2022-11-29T23:19:51.437Z,21.33
2022-11-29T23:22:56.447Z,20.67
2022-11-29T23:26:00.312Z,20.97
2022-11-29T23:29:03.462Z,21.20
2022-11-29T23:32:06.506Z,21.50
2022-11-29T23:35:10.001Z,20.37
2022-11-29T23:38:14.455Z,21.30
2022-11-29T23:41:17.417Z,20.93
2022-11-29T23:44:20.363Z,20.83
2022-11-29T23:47:23.452Z,21.00
2022-11-29T23:50:26.395Z,19.90
2022-11-29T23:53:30.693Z,20.53
2022-11-29T23:56:35.395Z,21.80
2022-11-29T23:59:38.553Z,20.93
